sensor_id;sensor_type;location;lat;lon;timestamp;pressure;altitude;pressure_sealevel;temperature;humidity
6343;BME280;3204;42.698;23.298;2022-09-13T00:00:27;94778.13;;;16.68;71.82
6343;BME280;3204;42.698;23.298;2022-09-13T00:02:53;94781.22;;;16.67;71.92
6343;BME280;3204;42.698;23.298;2022-09-13T00:05:19;94785.56;;;16.68;71.97
6343;BME280;3204;42.698;23.298;2022-09-13T00:07:44;94779.34;;;16.71;72.23
6343;BME280;3204;42.698;23.298;2022-09-13T00:10:09;94774.00;;;16.75;72.10
6343;BME280;3204;42.698;23.298;2022-09-13T00:12:35;94775.66;;;16.79;72.27
6343;BME280;3204;42.698;23.298;2022-09-13T00:15:01;94776.09;;;16.81;72.52
6343;BME280;3204;42.698;23.298;2022-09-13T00:17:27;94771.16;;;16.87;72.01
6343;BME280;3204;42.698;23.298;2022-09-13T00:19:52;94768.88;;;16.89;72.06
6343;BME280;3204;42.698;23.298;2022-09-13T00:22:18;94764.72;;;16.95;71.82
6343;BME280;3204;42.698;23.298;2022-09-13T00:24:43;94762.41;;;16.97;71.81
6343;BME280;3204;42.698;23.298;2022-09-13T00:27:09;94765.06;;;16.93;72.01
6343;BME280;3204;42.698;23.298;2022-09-13T00:29:36;94754.94;;;16.94;71.90
6343;BME280;3204;42.698;23.298;2022-09-13T00:32:01;94760.84;;;16.96;71.95
6343;BME280;3204;42.698;23.298;2022-09-13T00:34:28;94760.50;;;16.97;72.04
6343;BME280;3204;42.698;23.298;2022-09-13T00:36:53;94756.50;;;16.95;72.27
6343;BME280;3204;42.698;23.298;2022-09-13T00:39:18;94753.03;;;16.98;72.14
6343;BME280;3204;42.698;23.298;2022-09-13T00:41:44;94762.16;;;17.02;72.14
6343;BME280;3204;42.698;23.298;2022-09-13T00:47:14;94751.66;;;17.04;72.00
6343;BME280;3204;42.698;23.298;2022-09-13T00:49:42;94758.38;;;17.06;72.02
6343;BME280;3204;42.698;23.298;2022-09-13T00:52:13;94743.66;;;17.14;71.61
6343;BME280;3204;42.698;23.298;2022-09-13T00:54:49;94749.16;;;17.14;71.82
6343;BME280;3204;42.698;23.298;2022-09-13T00:57:17;94746.41;;;17.14;71.75
6343;BME280;3204;42.698;23.298;2022-09-13T00:59:52;94745.97;;;17.12;71.67
6343;BME280;3204;42.698;23.298;2022-09-13T01:02:21;94740.41;;;17.09;72.03
6343;BME280;3204;42.698;23.298;2022-09-13T01:04:46;94741.75;;;17.15;72.04
6343;BME280;3204;42.698;23.298;2022-09-13T01:07:14;94745.72;;;17.17;71.89
6343;BME280;3204;42.698;23.298;2022-09-13T01:09:43;94745.09;;;17.24;71.61
6343;BME280;3204;42.698;23.298;2022-09-13T01:12:51;94750.91;;;17.22;71.39
6343;BME280;3204;42.698;23.298;2022-09-13T01:15:14;94750.16;;;17.22;71.37
6343;BME280;3204;42.698;23.298;2022-09-13T01:17:41;94750.16;;;17.22;71.47
6343;BME280;3204;42.698;23.298;2022-09-13T01:20:07;94741.13;;;17.21;71.26
6343;BME280;3204;42.698;23.298;2022-09-13T01:23:00;94740.03;;;17.26;71.10
6343;BME280;3204;42.698;23.298;2022-09-13T01:31:29;94739.25;;;17.25;71.10
6343;BME280;3204;42.698;23.298;2022-09-13T01:34:06;94729.19;;;17.29;71.02
6343;BME280;3204;42.698;23.298;2022-09-13T01:39:05;94733.44;;;17.27;71.39
6343;BME280;3204;42.698;23.298;2022-09-13T01:46:58;94737.22;;;17.22;71.34
6343;BME280;3204;42.698;23.298;2022-09-13T01:52:10;94732.72;;;17.14;72.06
6343;BME280;3204;42.698;23.298;2022-09-13T01:55:02;94731.56;;;17.15;71.66
6343;BME280;3204;42.698;23.298;2022-09-13T01:57:35;94729.25;;;17.17;71.62
6343;BME280;3204;42.698;23.298;2022-09-13T02:00:12;94730.84;;;17.18;71.65
6343;BME280;3204;42.698;23.298;2022-09-13T02:05:31;94722.47;;;17.11;71.93
6343;BME280;3204;42.698;23.298;2022-09-13T02:08:06;94722.97;;;17.17;71.58
6343;BME280;3204;42.698;23.298;2022-09-13T02:10:37;94722.91;;;17.13;71.89
6343;BME280;3204;42.698;23.298;2022-09-13T02:13:04;94723.25;;;17.12;72.05
6343;BME280;3204;42.698;23.298;2022-09-13T02:15:40;94727.50;;;17.09;71.83
6343;BME280;3204;42.698;23.298;2022-09-13T02:18:27;94727.06;;;17.07;71.97
6343;BME280;3204;42.698;23.298;2022-09-13T02:21:00;94728.84;;;17.00;72.10
6343;BME280;3204;42.698;23.298;2022-09-13T02:23:33;94727.16;;;16.95;72.34
6343;BME280;3204;42.698;23.298;2022-09-13T02:25:59;94720.09;;;16.94;72.31
6343;BME280;3204;42.698;23.298;2022-09-13T02:28:35;94714.25;;;16.96;72.36
6343;BME280;3204;42.698;23.298;2022-09-13T02:31:03;94711.50;;;16.80;72.56
6343;BME280;3204;42.698;23.298;2022-09-13T02:33:44;94723.69;;;16.83;72.70
6343;BME280;3204;42.698;23.298;2022-09-13T02:36:14;94732.38;;;16.85;72.79
6343;BME280;3204;42.698;23.298;2022-09-13T02:38:50;94729.78;;;16.76;72.64
6343;BME280;3204;42.698;23.298;2022-09-13T02:41:29;94729.19;;;16.67;72.97
6343;BME280;3204;42.698;23.298;2022-09-13T02:44:21;94728.66;;;16.62;73.41
6343;BME280;3204;42.698;23.298;2022-09-13T02:50:14;94732.72;;;16.67;73.02
6343;BME280;3204;42.698;23.298;2022-09-13T02:58:32;94726.69;;;16.47;73.81
6343;BME280;3204;42.698;23.298;2022-09-13T03:01:00;94725.06;;;16.45;73.58
6343;BME280;3204;42.698;23.298;2022-09-13T03:03:26;94724.72;;;16.47;73.77
6343;BME280;3204;42.698;23.298;2022-09-13T03:05:52;94721.47;;;16.42;73.46
6343;BME280;3204;42.698;23.298;2022-09-13T03:08:18;94724.44;;;16.36;74.11
6343;BME280;3204;42.698;23.298;2022-09-13T03:16:14;94732.53;;;16.33;73.91
6343;BME280;3204;42.698;23.298;2022-09-13T03:21:40;94726.56;;;16.43;73.88
6343;BME280;3204;42.698;23.298;2022-09-13T03:29:40;94723.50;;;16.17;74.92
6343;BME280;3204;42.698;23.298;2022-09-13T03:35:06;94729.13;;;16.08;74.79
6343;BME280;3204;42.698;23.298;2022-09-13T03:38:06;94727.88;;;16.06;75.14
6343;BME280;3204;42.698;23.298;2022-09-13T03:40:35;94734.84;;;16.03;74.71
6343;BME280;3204;42.698;23.298;2022-09-13T03:43:13;94733.94;;;15.99;75.03
6343;BME280;3204;42.698;23.298;2022-09-13T03:45:45;94726.72;;;16.07;74.79
6343;BME280;3204;42.698;23.298;2022-09-13T03:48:13;94733.69;;;16.04;75.02
6343;BME280;3204;42.698;23.298;2022-09-13T03:50:39;94722.91;;;15.96;75.12
6343;BME280;3204;42.698;23.298;2022-09-13T03:53:10;94725.88;;;15.91;75.41
6343;BME280;3204;42.698;23.298;2022-09-13T03:55:39;94729.97;;;15.97;75.02
6343;BME280;3204;42.698;23.298;2022-09-13T03:58:07;94734.28;;;15.98;74.83
6343;BME280;3204;42.698;23.298;2022-09-13T04:00:33;94737.47;;;16.00;74.89
6343;BME280;3204;42.698;23.298;2022-09-13T04:02:58;94736.59;;;15.96;74.98
6343;BME280;3204;42.698;23.298;2022-09-13T04:05:23;94739.41;;;15.99;74.72
6343;BME280;3204;42.698;23.298;2022-09-13T04:07:49;94737.84;;;15.98;74.78
6343;BME280;3204;42.698;23.298;2022-09-13T04:10:14;94747.16;;;15.97;74.36
6343;BME280;3204;42.698;23.298;2022-09-13T04:12:40;94746.16;;;15.90;74.84
6343;BME280;3204;42.698;23.298;2022-09-13T04:15:07;94736.13;;;15.94;74.74
6343;BME280;3204;42.698;23.298;2022-09-13T04:17:32;94740.44;;;15.95;75.19
6343;BME280;3204;42.698;23.298;2022-09-13T04:19:58;94737.00;;;16.10;75.04
6343;BME280;3204;42.698;23.298;2022-09-13T04:22:23;94736.69;;;15.99;74.95
6343;BME280;3204;42.698;23.298;2022-09-13T04:24:49;94740.41;;;16.07;74.67
6343;BME280;3204;42.698;23.298;2022-09-13T04:27:14;94746.50;;;15.88;75.00
6343;BME280;3204;42.698;23.298;2022-09-13T04:29:40;94744.56;;;15.89;75.19
6343;BME280;3204;42.698;23.298;2022-09-13T04:32:05;94750.63;;;15.82;75.16
6343;BME280;3204;42.698;23.298;2022-09-13T04:34:31;94752.84;;;15.77;75.69
6343;BME280;3204;42.698;23.298;2022-09-13T04:36:56;94751.47;;;15.71;74.99
6343;BME280;3204;42.698;23.298;2022-09-13T04:39:22;94749.44;;;15.68;75.67
6343;BME280;3204;42.698;23.298;2022-09-13T04:41:48;94750.09;;;15.65;75.69
6343;BME280;3204;42.698;23.298;2022-09-13T04:44:15;94753.03;;;15.72;75.25
6343;BME280;3204;42.698;23.298;2022-09-13T04:46:41;94758.31;;;15.77;75.64
6343;BME280;3204;42.698;23.298;2022-09-13T04:49:09;94758.31;;;15.77;75.80
6343;BME280;3204;42.698;23.298;2022-09-13T04:51:34;94764.53;;;15.77;75.46
6343;BME280;3204;42.698;23.298;2022-09-13T04:54:00;94770.59;;;15.83;75.56
6343;BME280;3204;42.698;23.298;2022-09-13T04:56:26;94756.69;;;15.76;75.27
6343;BME280;3204;42.698;23.298;2022-09-13T04:58:53;94766.50;;;15.77;75.66
6343;BME280;3204;42.698;23.298;2022-09-13T05:01:19;94765.78;;;15.80;75.25
6343;BME280;3204;42.698;23.298;2022-09-13T05:03:45;94765.88;;;15.83;74.90
6343;BME280;3204;42.698;23.298;2022-09-13T05:06:12;94773.06;;;15.88;74.95
6343;BME280;3204;42.698;23.298;2022-09-13T05:08:39;94772.38;;;15.91;74.61
6343;BME280;3204;42.698;23.298;2022-09-13T05:11:05;94769.50;;;15.99;74.12
6343;BME280;3204;42.698;23.298;2022-09-13T05:13:31;94770.03;;;16.05;73.99
6343;BME280;3204;42.698;23.298;2022-09-13T05:16:04;94763.88;;;16.08;74.35
6343;BME280;3204;42.698;23.298;2022-09-13T05:18:32;94766.03;;;16.14;73.74
6343;BME280;3204;42.698;23.298;2022-09-13T05:20:59;94766.69;;;16.23;74.04
6343;BME280;3204;42.698;23.298;2022-09-13T05:23:26;94759.13;;;16.32;74.15
6343;BME280;3204;42.698;23.298;2022-09-13T05:26:01;94765.09;;;16.50;73.30
6343;BME280;3204;42.698;23.298;2022-09-13T05:28:28;94765.16;;;16.66;72.91
6343;BME280;3204;42.698;23.298;2022-09-13T05:31:10;94767.44;;;16.79;72.20
6343;BME280;3204;42.698;23.298;2022-09-13T05:33:37;94767.81;;;16.93;71.74
6343;BME280;3204;42.698;23.298;2022-09-13T05:36:04;94772.59;;;17.12;71.09
6343;BME280;3204;42.698;23.298;2022-09-13T05:38:30;94768.97;;;17.23;71.08
6343;BME280;3204;42.698;23.298;2022-09-13T05:40:57;94766.69;;;17.41;70.25
6343;BME280;3204;42.698;23.298;2022-09-13T05:43:25;94774.81;;;17.53;69.69
6343;BME280;3204;42.698;23.298;2022-09-13T05:45:59;94774.59;;;17.61;69.75
6343;BME280;3204;42.698;23.298;2022-09-13T05:48:25;94784.13;;;17.83;68.34
6343;BME280;3204;42.698;23.298;2022-09-13T05:50:51;94782.06;;;17.95;67.70
6343;BME280;3204;42.698;23.298;2022-09-13T05:53:16;94777.13;;;18.04;67.67
6343;BME280;3204;42.698;23.298;2022-09-13T05:55:42;94777.44;;;18.18;67.72
6343;BME280;3204;42.698;23.298;2022-09-13T05:58:07;94781.75;;;18.35;67.03
6343;BME280;3204;42.698;23.298;2022-09-13T06:00:33;94783.13;;;18.44;66.78
6343;BME280;3204;42.698;23.298;2022-09-13T06:02:59;94770.09;;;18.60;66.62
6343;BME280;3204;42.698;23.298;2022-09-13T06:05:25;94772.03;;;18.79;65.92
6343;BME280;3204;42.698;23.298;2022-09-13T06:07:50;94776.38;;;19.02;65.38
6343;BME280;3204;42.698;23.298;2022-09-13T06:10:16;94785.06;;;19.23;64.44
6343;BME280;3204;42.698;23.298;2022-09-13T06:12:41;94784.16;;;19.42;63.59
6343;BME280;3204;42.698;23.298;2022-09-13T06:15:07;94778.41;;;19.50;62.36
6343;BME280;3204;42.698;23.298;2022-09-13T06:17:33;94783.19;;;19.53;62.60
6343;BME280;3204;42.698;23.298;2022-09-13T06:19:59;94788.09;;;19.67;62.68
6343;BME280;3204;42.698;23.298;2022-09-13T06:22:24;94784.00;;;19.80;62.57
6343;BME280;3204;42.698;23.298;2022-09-13T06:24:50;94783.72;;;19.88;62.37
6343;BME280;3204;42.698;23.298;2022-09-13T06:27:16;94783.75;;;20.14;61.23
6343;BME280;3204;42.698;23.298;2022-09-13T06:29:41;94783.09;;;20.24;61.18
6343;BME280;3204;42.698;23.298;2022-09-13T06:32:06;94790.38;;;20.39;60.45
6343;BME280;3204;42.698;23.298;2022-09-13T06:34:32;94791.38;;;20.57;59.91
6343;BME280;3204;42.698;23.298;2022-09-13T06:36:58;94783.72;;;20.77;59.41
6343;BME280;3204;42.698;23.298;2022-09-13T06:39:23;94794.03;;;20.83;58.53
6343;BME280;3204;42.698;23.298;2022-09-13T06:41:49;94803.34;;;20.72;58.42
6343;BME280;3204;42.698;23.298;2022-09-13T06:44:14;94795.19;;;20.79;58.27
6343;BME280;3204;42.698;23.298;2022-09-13T06:46:40;94809.19;;;20.96;58.29
6343;BME280;3204;42.698;23.298;2022-09-13T06:49:07;94807.41;;;21.14;57.84
6343;BME280;3204;42.698;23.298;2022-09-13T06:51:34;94805.97;;;21.27;57.25
6343;BME280;3204;42.698;23.298;2022-09-13T06:54:00;94814.94;;;21.61;56.69
6343;BME280;3204;42.698;23.298;2022-09-13T06:56:30;94812.25;;;21.68;55.50
6343;BME280;3204;42.698;23.298;2022-09-13T06:59:01;94811.25;;;21.86;55.64
6343;BME280;3204;42.698;23.298;2022-09-13T07:01:39;94804.81;;;22.29;54.98
6343;BME280;3204;42.698;23.298;2022-09-13T07:04:07;94816.63;;;22.19;54.29
6343;BME280;3204;42.698;23.298;2022-09-13T07:06:38;94822.22;;;22.33;55.00
6343;BME280;3204;42.698;23.298;2022-09-13T07:09:06;94819.97;;;22.49;53.98
6343;BME280;3204;42.698;23.298;2022-09-13T07:11:37;94816.69;;;22.30;53.92
6343;BME280;3204;42.698;23.298;2022-09-13T07:14:03;94826.19;;;22.32;53.70
6343;BME280;3204;42.698;23.298;2022-09-13T07:16:32;94827.88;;;22.54;53.01
6343;BME280;3204;42.698;23.298;2022-09-13T07:19:00;94817.28;;;22.63;53.27
6343;BME280;3204;42.698;23.298;2022-09-13T07:21:27;94819.28;;;22.70;52.88
6343;BME280;3204;42.698;23.298;2022-09-13T07:23:54;94824.94;;;22.94;52.26
6343;BME280;3204;42.698;23.298;2022-09-13T07:26:20;94825.69;;;22.84;50.64
6343;BME280;3204;42.698;23.298;2022-09-13T07:28:48;94822.91;;;22.84;51.48
6343;BME280;3204;42.698;23.298;2022-09-13T07:31:19;94826.94;;;23.04;51.84
6343;BME280;3204;42.698;23.298;2022-09-13T07:33:45;94831.38;;;23.26;50.47
6343;BME280;3204;42.698;23.298;2022-09-13T07:36:12;94829.78;;;23.22;50.48
6343;BME280;3204;42.698;23.298;2022-09-13T07:38:42;94828.66;;;23.51;50.46
6343;BME280;3204;42.698;23.298;2022-09-13T07:41:12;94826.69;;;23.65;49.25
6343;BME280;3204;42.698;23.298;2022-09-13T07:43:38;94828.25;;;23.45;48.71
6343;BME280;3204;42.698;23.298;2022-09-13T07:46:06;94827.84;;;23.36;49.81
6343;BME280;3204;42.698;23.298;2022-09-13T07:48:34;94825.81;;;23.19;49.78
6343;BME280;3204;42.698;23.298;2022-09-13T07:51:16;94831.75;;;23.21;50.39
6343;BME280;3204;42.698;23.298;2022-09-13T07:53:43;94829.44;;;23.37;50.05
6343;BME280;3204;42.698;23.298;2022-09-13T07:56:11;94831.03;;;23.59;48.92
6343;BME280;3204;42.698;23.298;2022-09-13T07:58:38;94831.88;;;23.95;48.45
6343;BME280;3204;42.698;23.298;2022-09-13T08:01:05;94828.31;;;24.08;47.26
6343;BME280;3204;42.698;23.298;2022-09-13T08:03:32;94826.69;;;23.86;47.19
6343;BME280;3204;42.698;23.298;2022-09-13T08:05:58;94828.28;;;23.87;47.31
6343;BME280;3204;42.698;23.298;2022-09-13T08:08:23;94833.88;;;24.05;47.93
6343;BME280;3204;42.698;23.298;2022-09-13T08:10:49;94820.75;;;24.33;47.55
6343;BME280;3204;42.698;23.298;2022-09-13T08:13:15;94824.69;;;24.50;47.37
6343;BME280;3204;42.698;23.298;2022-09-13T08:15:41;94831.38;;;24.77;45.64
6343;BME280;3204;42.698;23.298;2022-09-13T08:18:07;94829.34;;;24.91;45.34
6343;BME280;3204;42.698;23.298;2022-09-13T08:20:39;94831.81;;;24.61;43.84
6343;BME280;3204;42.698;23.298;2022-09-13T08:23:06;94835.81;;;24.11;44.26
6343;BME280;3204;42.698;23.298;2022-09-13T08:25:32;94815.25;;;23.91;45.48
6343;BME280;3204;42.698;23.298;2022-09-13T08:28:04;94827.13;;;24.09;44.94
6343;BME280;3204;42.698;23.298;2022-09-13T08:30:30;94823.50;;;24.44;45.13
6343;BME280;3204;42.698;23.298;2022-09-13T08:33:01;94825.09;;;24.41;44.48
6343;BME280;3204;42.698;23.298;2022-09-13T08:35:30;94796.50;;;24.58;44.39
6343;BME280;3204;42.698;23.298;2022-09-13T08:37:56;94822.53;;;25.03;42.11
6343;BME280;3204;42.698;23.298;2022-09-13T08:40:24;94820.84;;;25.23;42.51
6343;BME280;3204;42.698;23.298;2022-09-13T08:45:57;94814.63;;;25.05;43.20
6343;BME280;3204;42.698;23.298;2022-09-13T08:48:38;94816.50;;;25.29;41.84
6343;BME280;3204;42.698;23.298;2022-09-13T08:51:12;94803.94;;;25.68;41.37
6343;BME280;3204;42.698;23.298;2022-09-13T08:53:46;94800.38;;;26.15;40.37
6343;BME280;3204;42.698;23.298;2022-09-13T08:56:22;94807.53;;;26.60;38.97
6343;BME280;3204;42.698;23.298;2022-09-13T09:03:45;94811.19;;;26.50;36.97
6343;BME280;3204;42.698;23.298;2022-09-13T09:06:14;94808.94;;;25.94;37.16
6343;BME280;3204;42.698;23.298;2022-09-13T09:08:47;94808.00;;;25.53;39.31
6343;BME280;3204;42.698;23.298;2022-09-13T09:11:30;94814.53;;;25.22;40.12
6343;BME280;3204;42.698;23.298;2022-09-13T09:14:39;94808.66;;;25.03;40.70
6343;BME280;3204;42.698;23.298;2022-09-13T09:17:26;94808.31;;;24.97;40.04
6343;BME280;3204;42.698;23.298;2022-09-13T09:19:57;94806.81;;;24.68;40.63
6343;BME280;3204;42.698;23.298;2022-09-13T09:22:30;94818.31;;;24.56;41.22
6343;BME280;3204;42.698;23.298;2022-09-13T09:24:57;94815.56;;;24.46;40.45
6343;BME280;3204;42.698;23.298;2022-09-13T09:27:22;94808.53;;;23.99;41.57
6343;BME280;3204;42.698;23.298;2022-09-13T09:29:50;94799.44;;;24.02;41.72
6343;BME280;3204;42.698;23.298;2022-09-13T09:35:15;94801.00;;;24.03;41.98
6343;BME280;3204;42.698;23.298;2022-09-13T09:37:53;94794.94;;;24.57;41.70
6343;BME280;3204;42.698;23.298;2022-09-13T09:40:24;94796.44;;;24.90;41.37
6343;BME280;3204;42.698;23.298;2022-09-13T09:42:49;94787.19;;;25.17;39.99
6343;BME280;3204;42.698;23.298;2022-09-13T09:45:27;94788.91;;;25.59;39.56
6343;BME280;3204;42.698;23.298;2022-09-13T09:47:55;94791.44;;;25.94;39.40
6343;BME280;3204;42.698;23.298;2022-09-13T09:50:26;94789.88;;;26.33;38.30
6343;BME280;3204;42.698;23.298;2022-09-13T09:56:23;94781.09;;;26.38;38.29
6343;BME280;3204;42.698;23.298;2022-09-13T09:58:50;94779.72;;;26.90;37.30
6343;BME280;3204;42.698;23.298;2022-09-13T10:04:02;94773.44;;;27.47;36.23
6343;BME280;3204;42.698;23.298;2022-09-13T10:06:29;94772.81;;;27.62;35.75
6343;BME280;3204;42.698;23.298;2022-09-13T10:09:19;94774.22;;;27.21;35.91
6343;BME280;3204;42.698;23.298;2022-09-13T10:11:56;94758.53;;;27.57;36.59
6343;BME280;3204;42.698;23.298;2022-09-13T10:17:15;94758.38;;;28.17;35.35
6343;BME280;3204;42.698;23.298;2022-09-13T10:22:40;94758.41;;;28.79;35.06
6343;BME280;3204;42.698;23.298;2022-09-13T10:25:14;94749.84;;;29.09;35.01
6343;BME280;3204;42.698;23.298;2022-09-13T10:27:48;94751.75;;;29.31;34.44
6343;BME280;3204;42.698;23.298;2022-09-13T10:33:01;94750.19;;;29.98;32.29
6343;BME280;3204;42.698;23.298;2022-09-13T10:35:27;94753.25;;;30.19;31.31
6343;BME280;3204;42.698;23.298;2022-09-13T10:37:53;94755.09;;;30.26;31.79
6343;BME280;3204;42.698;23.298;2022-09-13T10:40:29;94766.28;;;30.26;31.71
6343;BME280;3204;42.698;23.298;2022-09-13T10:42:57;94755.00;;;30.29;30.42
6343;BME280;3204;42.698;23.298;2022-09-13T10:45:28;94748.09;;;30.18;31.00
6343;BME280;3204;42.698;23.298;2022-09-13T11:01:42;94730.97;;;30.89;29.93
6343;BME280;3204;42.698;23.298;2022-09-13T11:06:51;94731.66;;;30.93;29.30
6343;BME280;3204;42.698;23.298;2022-09-13T11:20:30;94724.03;;;30.65;29.25
6343;BME280;3204;42.698;23.298;2022-09-13T11:26:08;94718.72;;;29.78;30.09
6343;BME280;3204;42.698;23.298;2022-09-13T11:29:39;94706.38;;;29.91;29.99
6343;BME280;3204;42.698;23.298;2022-09-13T11:31:42;94706.28;;;30.11;30.29
6343;BME280;3204;42.698;23.298;2022-09-13T11:47:47;94710.78;;;30.37;29.32
6343;BME280;3204;42.698;23.298;2022-09-13T11:55:48;94702.53;;;29.85;29.71
6343;BME280;3204;42.698;23.298;2022-09-13T11:58:27;94697.34;;;30.00;29.50
6343;BME280;3204;42.698;23.298;2022-09-13T12:01:07;94697.88;;;29.95;29.75
6343;BME280;3204;42.698;23.298;2022-09-13T12:06:12;94688.94;;;29.52;30.36
6343;BME280;3204;42.698;23.298;2022-09-13T12:08:44;94704.97;;;29.16;30.97
6343;BME280;3204;42.698;23.298;2022-09-13T12:11:19;94711.72;;;28.60;31.15
6343;BME280;3204;42.698;23.298;2022-09-13T12:13:58;94711.16;;;28.49;31.27
6343;BME280;3204;42.698;23.298;2022-09-13T12:16:38;94700.13;;;28.81;31.12
6343;BME280;3204;42.698;23.298;2022-09-13T12:19:13;94696.25;;;28.75;31.06
6343;BME280;3204;42.698;23.298;2022-09-13T12:21:41;94694.59;;;28.77;31.31
6343;BME280;3204;42.698;23.298;2022-09-13T12:24:18;94696.53;;;29.00;30.77
6343;BME280;3204;42.698;23.298;2022-09-13T12:29:24;94687.28;;;29.38;30.62
6343;BME280;3204;42.698;23.298;2022-09-13T12:31:59;94694.09;;;29.53;30.57
6343;BME280;3204;42.698;23.298;2022-09-13T12:35:05;94693.50;;;29.46;29.32
6343;BME280;3204;42.698;23.298;2022-09-13T12:38:01;94699.59;;;29.25;30.27
6343;BME280;3204;42.698;23.298;2022-09-13T12:54:52;94681.34;;;29.36;30.25
6343;BME280;3204;42.698;23.298;2022-09-13T13:00:21;94688.31;;;29.44;30.00
6343;BME280;3204;42.698;23.298;2022-09-13T13:03:11;94700.16;;;29.16;30.84
6343;BME280;3204;42.698;23.298;2022-09-13T13:10:42;94686.22;;;28.38;31.60
6343;BME280;3204;42.698;23.298;2022-09-13T13:13:13;94699.28;;;28.45;31.57
6343;BME280;3204;42.698;23.298;2022-09-13T13:18:27;94691.63;;;27.83;31.84
6343;BME280;3204;42.698;23.298;2022-09-13T13:42:43;94704.88;;;26.96;34.22
6343;BME280;3204;42.698;23.298;2022-09-13T13:59:57;94707.34;;;27.47;33.63
6343;BME280;3204;42.698;23.298;2022-09-13T14:02:45;94701.13;;;27.63;34.05
6343;BME280;3204;42.698;23.298;2022-09-13T14:09:14;94697.31;;;27.99;33.17
6343;BME280;3204;42.698;23.298;2022-09-13T14:19:58;94717.84;;;27.63;33.30
6343;BME280;3204;42.698;23.298;2022-09-13T14:22:25;94716.22;;;27.38;33.55
6343;BME280;3204;42.698;23.298;2022-09-13T14:24:53;94714.09;;;27.19;33.51
6343;BME280;3204;42.698;23.298;2022-09-13T14:27:28;94707.72;;;27.23;33.77
6343;BME280;3204;42.698;23.298;2022-09-13T14:30:00;94716.81;;;27.27;33.95
6343;BME280;3204;42.698;23.298;2022-09-13T14:32:29;94708.72;;;27.36;34.51
6343;BME280;3204;42.698;23.298;2022-09-13T14:35:02;94723.38;;;27.09;34.47
6343;BME280;3204;42.698;23.298;2022-09-13T14:37:32;94713.34;;;26.89;34.25
6343;BME280;3204;42.698;23.298;2022-09-13T14:42:37;94716.34;;;26.71;34.55
6343;BME280;3204;42.698;23.298;2022-09-13T14:45:03;94720.00;;;26.65;34.20
6343;BME280;3204;42.698;23.298;2022-09-13T14:47:48;94714.88;;;26.63;33.87
6343;BME280;3204;42.698;23.298;2022-09-13T14:50:21;94714.88;;;26.63;33.77
6343;BME280;3204;42.698;23.298;2022-09-13T14:52:52;94723.25;;;26.60;33.76
6343;BME280;3204;42.698;23.298;2022-09-13T14:55:29;94731.88;;;26.35;33.67
6343;BME280;3204;42.698;23.298;2022-09-13T14:58:04;94723.56;;;26.28;34.06
6343;BME280;3204;42.698;23.298;2022-09-13T15:00:34;94719.94;;;26.35;34.03
6343;BME280;3204;42.698;23.298;2022-09-13T15:03:04;94723.25;;;26.23;34.03
6343;BME280;3204;42.698;23.298;2022-09-13T15:05:35;94725.75;;;26.10;34.24
6343;BME280;3204;42.698;23.298;2022-09-13T15:08:43;94731.50;;;25.93;34.52
6343;BME280;3204;42.698;23.298;2022-09-13T15:11:13;94732.31;;;25.86;34.58
6343;BME280;3204;42.698;23.298;2022-09-13T15:13:41;94723.66;;;25.81;34.63
6343;BME280;3204;42.698;23.298;2022-09-13T15:16:28;94722.53;;;25.71;34.41
6343;BME280;3204;42.698;23.298;2022-09-13T15:19:16;94729.50;;;25.42;34.95
6343;BME280;3204;42.698;23.298;2022-09-13T15:21:42;94717.31;;;25.29;35.29
6343;BME280;3204;42.698;23.298;2022-09-13T15:24:21;94720.81;;;25.40;35.68
6343;BME280;3204;42.698;23.298;2022-09-13T15:27:00;94727.22;;;25.30;35.84
6343;BME280;3204;42.698;23.298;2022-09-13T15:29:26;94716.13;;;25.27;36.23
6343;BME280;3204;42.698;23.298;2022-09-13T15:31:58;94716.19;;;25.13;36.73
6343;BME280;3204;42.698;23.298;2022-09-13T15:34:23;94708.78;;;24.96;37.46
6343;BME280;3204;42.698;23.298;2022-09-13T15:39:27;94725.06;;;24.90;37.50
6343;BME280;3204;42.698;23.298;2022-09-13T15:41:57;94720.75;;;24.86;37.59
6343;BME280;3204;42.698;23.298;2022-09-13T15:44:25;94728.34;;;24.68;37.74
6343;BME280;3204;42.698;23.298;2022-09-13T15:46:56;94727.59;;;24.53;37.47
6343;BME280;3204;42.698;23.298;2022-09-13T15:49:26;94729.31;;;24.12;38.32
6343;BME280;3204;42.698;23.298;2022-09-13T15:51:54;94726.16;;;23.96;38.62
6343;BME280;3204;42.698;23.298;2022-09-13T15:54:20;94727.75;;;23.76;39.20
6343;BME280;3204;42.698;23.298;2022-09-13T15:56:49;94743.63;;;23.62;39.07
6343;BME280;3204;42.698;23.298;2022-09-13T15:59:20;94741.22;;;23.53;39.56
6343;BME280;3204;42.698;23.298;2022-09-13T16:01:50;94742.81;;;23.33;40.07
6343;BME280;3204;42.698;23.298;2022-09-13T16:04:16;94740.00;;;23.23;40.46
6343;BME280;3204;42.698;23.298;2022-09-13T16:06:42;94737.19;;;23.05;40.72
6343;BME280;3204;42.698;23.298;2022-09-13T16:09:18;94743.50;;;22.95;41.19
6343;BME280;3204;42.698;23.298;2022-09-13T16:11:46;94751.00;;;22.84;41.37
6343;BME280;3204;42.698;23.298;2022-09-13T16:14:12;94748.97;;;22.71;41.61
6343;BME280;3204;42.698;23.298;2022-09-13T16:16:38;94752.47;;;22.61;42.13
6343;BME280;3204;42.698;23.298;2022-09-13T16:19:04;94754.44;;;22.53;42.33
6343;BME280;3204;42.698;23.298;2022-09-13T16:21:29;94750.81;;;22.42;42.54
6343;BME280;3204;42.698;23.298;2022-09-13T16:23:55;94743.25;;;22.32;42.77
6343;BME280;3204;42.698;23.298;2022-09-13T16:26:20;94742.44;;;22.25;42.74
6343;BME280;3204;42.698;23.298;2022-09-13T16:28:46;94748.34;;;22.23;43.11
6343;BME280;3204;42.698;23.298;2022-09-13T16:31:12;94748.25;;;22.06;43.70
6343;BME280;3204;42.698;23.298;2022-09-13T16:33:39;94747.81;;;21.97;43.89
6343;BME280;3204;42.698;23.298;2022-09-13T16:36:05;94748.09;;;21.85;44.25
6343;BME280;3204;42.698;23.298;2022-09-13T16:38:30;94755.63;;;21.84;44.43
6343;BME280;3204;42.698;23.298;2022-09-13T16:40:56;94750.00;;;21.74;44.52
6343;BME280;3204;42.698;23.298;2022-09-13T16:43:21;94752.28;;;21.68;45.02
6343;BME280;3204;42.698;23.298;2022-09-13T16:45:47;94764.84;;;21.59;45.03
6343;BME280;3204;42.698;23.298;2022-09-13T16:48:14;94766.78;;;21.55;45.36
6343;BME280;3204;42.698;23.298;2022-09-13T16:50:40;94763.94;;;21.44;45.92
6343;BME280;3204;42.698;23.298;2022-09-13T16:53:06;94766.69;;;21.41;45.74